createdAt,value
2018-01-10T00:00:43.658Z,1009.09
2018-01-10T00:01:43.615Z,1009.07
2018-01-10T00:02:43.581Z,1009.06
2018-01-10T00:03:43.533Z,1009.00
2018-01-10T00:04:43.493Z,1008.95
2018-01-10T00:05:43.452Z,1008.92
2018-01-10T00:06:43.410Z,1008.82
2018-01-10T00:07:43.375Z,1008.86
2018-01-10T00:08:43.330Z,1008.84
2018-01-10T00:09:43.280Z,1008.90
2018-01-10T00:10:43.246Z,1008.97
2018-01-10T00:11:43.212Z,1009.09
2018-01-10T00:12:43.177Z,1009.18
2018-01-10T00:13:43.125Z,1009.21
2018-01-10T00:14:43.123Z,1009.29
2018-01-10T00:15:43.059Z,1009.25
2018-01-10T00:16:43.001Z,1009.29
2018-01-10T00:17:42.960Z,1009.32
2018-01-10T00:18:42.934Z,1009.33
2018-01-10T00:19:42.874Z,1009.37
2018-01-10T00:20:42.973Z,1009.34
2018-01-10T00:21:42.803Z,1009.31
2018-01-10T00:22:42.757Z,1009.34
2018-01-10T00:23:42.708Z,1009.36
2018-01-10T00:24:42.668Z,1009.37
2018-01-10T00:25:42.628Z,1009.36
2018-01-10T00:26:42.591Z,1009.37
2018-01-10T00:27:42.545Z,1009.38
2018-01-10T00:28:42.512Z,1009.40
2018-01-10T00:29:42.460Z,1009.30
2018-01-10T00:30:42.420Z,1009.18
2018-01-10T00:31:42.384Z,1009.10
2018-01-10T00:32:42.344Z,1009.02
2018-01-10T00:33:42.303Z,1009.02
2018-01-10T00:34:42.265Z,1009.06
2018-01-10T00:35:42.213Z,1009.10
2018-01-10T00:36:42.187Z,1009.09
2018-01-10T00:37:42.155Z,1009.11
2018-01-10T00:38:42.093Z,1009.10
2018-01-10T00:39:42.073Z,1009.10
2018-01-10T00:40:42.007Z,1009.08
2018-01-10T00:41:41.970Z,1009.01
2018-01-10T00:42:41.937Z,1009.01
2018-01-10T00:43:41.885Z,1009.02
2018-01-10T00:44:41.856Z,1009.00
2018-01-10T00:45:41.837Z,1008.91
2018-01-10T00:46:41.764Z,1008.84
2018-01-10T00:47:41.741Z,1008.84
2018-01-10T00:48:41.681Z,1008.87
2018-01-10T00:49:41.639Z,1009.00
2018-01-10T00:50:41.598Z,1009.06
2018-01-10T00:51:41.550Z,1009.07
2018-01-10T00:52:41.511Z,1009.13
2018-01-10T00:53:41.472Z,1009.15
2018-01-10T00:54:41.428Z,1009.14
2018-01-10T00:55:41.385Z,1009.13
2018-01-10T00:56:41.350Z,1009.16
2018-01-10T00:57:41.300Z,1009.13
2018-01-10T00:58:41.267Z,1009.11
2018-01-10T00:59:41.224Z,1009.05
2018-01-10T01:00:41.179Z,1008.99
2018-01-10T01:01:41.139Z,1009.06
2018-01-10T01:02:41.094Z,1009.09
2018-01-10T01:03:41.058Z,1009.10
2018-01-10T01:04:41.016Z,1009.03
2018-01-10T01:05:40.976Z,1009.05
2018-01-10T01:06:40.945Z,1009.10
2018-01-10T01:07:40.896Z,1009.14
2018-01-10T01:08:40.843Z,1009.14
2018-01-10T01:09:40.827Z,1009.14
2018-01-10T01:10:40.776Z,1009.16
2018-01-10T01:11:40.730Z,1009.15
2018-01-10T01:12:40.690Z,1009.16
2018-01-10T01:13:40.641Z,1009.23
2018-01-10T01:14:40.600Z,1009.21
2018-01-10T01:15:40.587Z,1009.23
2018-01-10T01:16:40.512Z,1009.26
2018-01-10T01:17:40.477Z,1009.23
2018-01-10T01:18:40.434Z,1009.19
2018-01-10T01:19:40.385Z,1009.15
2018-01-10T01:20:40.381Z,1009.14
2018-01-10T01:21:40.304Z,1009.16
2018-01-10T01:22:40.262Z,1009.13
2018-01-10T01:23:40.218Z,1009.08
2018-01-10T01:24:40.174Z,1009.05
2018-01-10T01:25:40.139Z,1008.98
2018-01-10T01:26:40.092Z,1008.91
2018-01-10T01:27:40.060Z,1008.87
2018-01-10T01:28:40.026Z,1008.80
2018-01-10T01:29:39.972Z,1008.79
2018-01-10T01:30:39.930Z,1008.75
2018-01-10T01:31:39.883Z,1008.80
2018-01-10T01:32:39.853Z,1008.78
2018-01-10T01:33:39.802Z,1008.77
2018-01-10T01:34:39.767Z,1008.74
2018-01-10T01:35:39.720Z,1008.77
2018-01-10T01:36:39.678Z,1008.76
2018-01-10T01:37:39.637Z,1008.77
2018-01-10T01:38:39.597Z,1008.75
2018-01-10T01:39:39.553Z,1008.81
2018-01-10T01:40:39.517Z,1008.78
2018-01-10T01:41:39.469Z,1008.82
2018-01-10T01:42:39.429Z,1008.85
2018-01-10T01:43:39.386Z,1008.85
2018-01-10T01:44:39.346Z,1008.87
2018-01-10T01:45:39.309Z,1008.89
2018-01-10T01:46:39.267Z,1008.93
2018-01-10T01:47:39.221Z,1008.95
2018-01-10T01:48:39.177Z,1008.96
2018-01-10T01:49:39.138Z,1008.96
2018-01-10T01:50:39.104Z,1008.91
2018-01-10T01:51:39.052Z,1008.92
2018-01-10T01:52:39.013Z,1008.90
2018-01-10T01:53:38.967Z,1008.93
2018-01-10T01:54:38.929Z,1008.91
2018-01-10T01:55:38.888Z,1008.90
2018-01-10T01:56:38.849Z,1008.96
2018-01-10T01:57:38.832Z,1008.96
2018-01-10T01:58:38.764Z,1008.94
2018-01-10T01:59:38.725Z,1008.99
2018-01-10T02:00:38.677Z,1008.94
2018-01-10T02:01:38.634Z,1008.99
2018-01-10T02:02:38.593Z,1008.98
2018-01-10T02:03:38.553Z,1009.02
2018-01-10T02:04:38.527Z,1009.00
2018-01-10T02:05:38.473Z,1009.01
2018-01-10T02:06:38.427Z,1009.03
2018-01-10T02:07:38.386Z,1009.05
2018-01-10T02:08:38.344Z,1009.02
2018-01-10T02:09:38.302Z,1009.03
2018-01-10T02:10:38.264Z,1009.03
2018-01-10T02:11:38.220Z,1009.00
2018-01-10T02:12:38.179Z,1009.02
2018-01-10T02:13:38.145Z,1008.96
2018-01-10T02:14:38.101Z,1008.92
2018-01-10T02:15:38.050Z,1008.88
2018-01-10T02:16:38.008Z,1008.87
2018-01-10T02:17:37.973Z,1008.82
2018-01-10T02:18:37.928Z,1008.82
2018-01-10T02:19:37.883Z,1008.79
2018-01-10T02:20:37.849Z,1008.78
2018-01-10T02:21:37.803Z,1008.80
2018-01-10T02:22:37.762Z,1008.78
2018-01-10T02:23:37.715Z,1008.78
2018-01-10T02:24:37.675Z,1008.75
2018-01-10T02:25:37.641Z,1008.82
2018-01-10T02:26:37.589Z,1008.75
2018-01-10T02:27:37.556Z,1008.77
2018-01-10T02:28:37.514Z,1008.75
2018-01-10T02:29:37.466Z,1008.78
2018-01-10T02:30:37.426Z,1008.75
2018-01-10T02:31:37.390Z,1008.70
2018-01-10T02:32:37.357Z,1008.69
2018-01-10T02:33:37.310Z,1008.70
2018-01-10T02:34:37.261Z,1008.68
2018-01-10T02:35:37.215Z,1008.66
2018-01-10T02:36:37.178Z,1008.64
2018-01-10T02:37:37.127Z,1008.64
2018-01-10T02:38:37.093Z,1008.66
2018-01-10T02:39:37.048Z,1008.66
2018-01-10T02:40:37.005Z,1008.68
2018-01-10T02:41:36.968Z,1008.69
2018-01-10T02:42:36.920Z,1008.72
2018-01-10T02:43:36.879Z,1008.72
2018-01-10T02:44:36.852Z,1008.69
2018-01-10T02:45:36.824Z,1008.80
2018-01-10T02:46:36.752Z,1008.78
2018-01-10T02:47:36.710Z,1008.76
2018-01-10T02:48:36.674Z,1008.79
2018-01-10T02:49:36.625Z,1008.75
2018-01-10T02:50:36.584Z,1008.78
2018-01-10T02:51:36.545Z,1008.77
2018-01-10T02:52:36.508Z,1008.75
2018-01-10T02:53:36.461Z,1008.74
2018-01-10T02:54:36.417Z,1008.75
2018-01-10T02:55:36.376Z,1008.78
2018-01-10T02:56:36.338Z,1008.76
2018-01-10T02:57:36.303Z,1008.73
2018-01-10T02:58:36.270Z,1008.76
2018-01-10T02:59:36.210Z,1008.75
2018-01-10T03:00:36.167Z,1008.82
2018-01-10T03:01:36.128Z,1008.81
2018-01-10T03:02:36.093Z,1008.81
2018-01-10T03:03:36.051Z,1008.77
2018-01-10T03:04:35.995Z,1008.82
2018-01-10T03:05:35.958Z,1008.78
2018-01-10T03:06:35.931Z,1008.79
2018-01-10T03:07:36.011Z,1008.81
2018-01-10T03:08:35.842Z,1008.82
2018-01-10T03:09:35.823Z,1008.86
2018-01-10T03:10:35.754Z,1008.84
2018-01-10T03:11:35.725Z,1008.83
2018-01-10T03:12:35.684Z,1008.86
2018-01-10T03:13:35.635Z,1008.86
2018-01-10T03:14:35.613Z,1008.86
2018-01-10T03:15:35.542Z,1008.85
2018-01-10T03:16:35.499Z,1008.86
2018-01-10T03:17:35.634Z,1008.91
2018-01-10T03:18:35.416Z,1008.92
2018-01-10T03:19:35.383Z,1008.96
2018-01-10T03:20:35.382Z,1008.94
2018-01-10T03:21:35.384Z,1008.96
2018-01-10T03:22:35.245Z,1008.96
2018-01-10T03:23:35.211Z,1009.01
2018-01-10T03:24:35.172Z,1008.99
2018-01-10T03:25:35.120Z,1008.97
2018-01-10T03:26:35.156Z,1009.04
2018-01-10T03:27:35.062Z,1009.05
2018-01-10T03:28:35.020Z,1009.05
2018-01-10T03:29:34.983Z,1009.05
2018-01-10T03:30:34.943Z,1009.06
2018-01-10T03:31:34.940Z,1009.10
2018-01-10T03:32:34.924Z,1009.06
2018-01-10T03:33:34.844Z,1009.08
2018-01-10T03:34:34.849Z,1009.08
2018-01-10T03:35:34.772Z,1009.14
2018-01-10T03:36:34.659Z,1009.11
2018-01-10T03:37:34.618Z,1009.11
2018-01-10T03:38:34.576Z,1009.12
2018-01-10T03:39:35.136Z,1009.09
2018-01-10T03:40:34.570Z,1009.07
2018-01-10T03:41:34.531Z,1009.11
2018-01-10T03:42:34.429Z,1009.05
2018-01-10T03:43:34.401Z,1009.11
2018-01-10T03:44:34.328Z,1009.05
2018-01-10T03:45:34.285Z,1009.08
2018-01-10T03:46:34.243Z,1009.07
2018-01-10T03:47:34.203Z,1009.09
2018-01-10T03:48:34.172Z,1009.09
2018-01-10T03:49:34.116Z,1009.10
2018-01-10T03:50:34.077Z,1009.09
2018-01-10T03:51:34.035Z,1009.11
2018-01-10T03:52:33.996Z,1009.10
2018-01-10T03:53:33.958Z,1009.07
2018-01-10T03:54:33.911Z,1009.05
2018-01-10T03:55:33.869Z,1009.07
2018-01-10T03:56:33.825Z,1009.04
2018-01-10T03:57:33.786Z,1009.02
2018-01-10T03:58:33.739Z,1008.99
2018-01-10T03:59:33.703Z,1009.00
2018-01-10T04:00:33.658Z,1008.94
2018-01-10T04:01:33.619Z,1008.92
2018-01-10T04:02:33.575Z,1008.95
2018-01-10T04:03:33.537Z,1008.93
2018-01-10T04:04:33.499Z,1008.88
2018-01-10T04:05:33.450Z,1008.90
2018-01-10T04:06:33.410Z,1008.94
2018-01-10T04:07:33.370Z,1008.86
2018-01-10T04:08:33.335Z,1008.84
2018-01-10T04:09:33.284Z,1008.90
2018-01-10T04:10:33.242Z,1008.91
2018-01-10T04:11:33.201Z,1008.85
2018-01-10T04:12:33.171Z,1008.82
2018-01-10T04:13:33.115Z,1008.79
2018-01-10T04:14:33.075Z,1008.77
2018-01-10T04:15:33.039Z,1008.73
2018-01-10T04:16:33.001Z,1008.74
2018-01-10T04:17:32.951Z,1008.74
2018-01-10T04:18:32.918Z,1008.74
2018-01-10T04:19:32.868Z,1008.77
2018-01-10T04:20:32.828Z,1008.75
2018-01-10T04:21:32.791Z,1008.76
2018-01-10T04:22:32.743Z,1008.72
2018-01-10T04:23:32.712Z,1008.71
2018-01-10T04:24:32.663Z,1008.78
2018-01-10T04:25:32.618Z,1008.75
2018-01-10T04:26:32.578Z,1008.81
2018-01-10T04:27:32.545Z,1008.80
2018-01-10T04:28:32.495Z,1008.87
2018-01-10T04:29:32.460Z,1008.86
2018-01-10T04:30:32.410Z,1008.85
2018-01-10T04:31:32.370Z,1008.87
2018-01-10T04:32:32.330Z,1008.91
2018-01-10T04:33:32.281Z,1008.93
2018-01-10T04:34:32.242Z,1008.90
2018-01-10T04:35:32.202Z,1008.87
2018-01-10T04:36:32.162Z,1008.88
2018-01-10T04:37:32.122Z,1008.91
2018-01-10T04:38:32.077Z,1008.89
2018-01-10T04:39:32.036Z,1008.94
2018-01-10T04:40:31.994Z,1008.90
2018-01-10T04:41:31.954Z,1008.88
2018-01-10T04:42:31.913Z,1008.86
2018-01-10T04:43:31.869Z,1008.87
2018-01-10T04:44:31.838Z,1008.84
2018-01-10T04:45:31.797Z,1008.83
2018-01-10T04:46:31.744Z,1008.81
2018-01-10T04:47:31.704Z,1008.82
2018-01-10T04:48:31.664Z,1008.83
2018-01-10T04:49:31.617Z,1008.83
2018-01-10T04:50:31.577Z,1008.83
2018-01-10T04:51:31.539Z,1008.90
2018-01-10T04:52:31.499Z,1008.91
2018-01-10T04:53:31.452Z,1008.93
2018-01-10T04:54:31.412Z,1008.94
2018-01-10T04:55:31.371Z,1008.97
2018-01-10T04:56:31.330Z,1009.01
2018-01-10T04:57:31.292Z,1009.02
2018-01-10T04:58:31.254Z,1009.03
2018-01-10T04:59:31.205Z,1009.00
2018-01-10T05:00:31.165Z,1008.95
2018-01-10T05:01:31.123Z,1008.97
2018-01-10T05:02:31.079Z,1008.94
2018-01-10T05:03:31.039Z,1008.96
2018-01-10T05:04:31.000Z,1008.93
2018-01-10T05:05:30.963Z,1008.96
2018-01-10T05:06:30.924Z,1008.93
2018-01-10T05:07:30.872Z,1008.90
2018-01-10T05:08:30.828Z,1008.85
2018-01-10T05:09:30.787Z,1008.86
2018-01-10T05:10:30.748Z,1008.87
2018-01-10T05:11:30.704Z,1008.88
2018-01-10T05:12:30.664Z,1008.88
2018-01-10T05:13:30.622Z,1008.91
2018-01-10T05:14:30.609Z,1008.91
2018-01-10T05:15:30.538Z,1008.95
2018-01-10T05:16:30.494Z,1009.02
2018-01-10T05:17:30.456Z,1009.03
2018-01-10T05:18:30.412Z,1008.98
2018-01-10T05:19:30.372Z,1009.00
2018-01-10T05:20:30.336Z,1008.93
2018-01-10T05:21:30.291Z,1008.93
2018-01-10T05:22:30.246Z,1008.92
2018-01-10T05:23:30.204Z,1008.82
2018-01-10T05:24:30.169Z,1008.79
2018-01-10T05:25:30.129Z,1008.81
2018-01-10T05:26:30.087Z,1008.81
2018-01-10T05:27:30.039Z,1008.86
2018-01-10T05:28:29.997Z,1008.82
2018-01-10T05:29:29.956Z,1008.81
2018-01-10T05:30:29.912Z,1008.85
2018-01-10T05:31:29.876Z,1008.82
2018-01-10T05:32:29.832Z,1008.79
2018-01-10T05:33:29.802Z,1008.82
2018-01-10T05:34:29.748Z,1008.77
2018-01-10T05:35:29.707Z,1008.79
2018-01-10T05:36:29.668Z,1008.78
2018-01-10T05:37:29.627Z,1008.79
2018-01-10T05:38:29.581Z,1008.79
2018-01-10T05:39:29.539Z,1008.83
2018-01-10T05:40:29.508Z,1008.79
2018-01-10T05:41:29.461Z,1008.77
2018-01-10T05:42:29.422Z,1008.77
2018-01-10T05:43:29.371Z,1008.76
2018-01-10T05:44:29.351Z,1008.77
2018-01-10T05:45:29.297Z,1008.74
2018-01-10T05:46:29.249Z,1008.72
2018-01-10T05:47:29.220Z,1008.69
2018-01-10T05:48:29.169Z,1008.66
2018-01-10T05:49:29.139Z,1008.65
2018-01-10T05:50:29.087Z,1008.58
2018-01-10T05:51:29.044Z,1008.58
2018-01-10T05:52:29.002Z,1008.57
2018-01-10T05:53:28.980Z,1008.58
2018-01-10T05:54:28.928Z,1008.63
2018-01-10T05:55:28.877Z,1008.66
2018-01-10T05:56:28.848Z,1008.67
2018-01-10T05:57:28.803Z,1008.68
2018-01-10T05:58:28.761Z,1008.73
2018-01-10T05:59:28.718Z,1008.76
2018-01-10T06:00:28.681Z,1008.79
2018-01-10T06:01:28.667Z,1008.88
2018-01-10T06:02:28.598Z,1008.86
2018-01-10T06:03:28.545Z,1008.83
2018-01-10T06:04:28.519Z,1008.80
2018-01-10T06:05:28.471Z,1008.76
2018-01-10T06:06:28.419Z,1008.75
2018-01-10T06:07:28.381Z,1008.68
2018-01-10T06:08:28.335Z,1008.65
2018-01-10T06:09:28.301Z,1008.66
2018-01-10T06:10:28.275Z,1008.70
2018-01-10T06:11:28.213Z,1008.73
2018-01-10T06:12:28.192Z,1008.75
2018-01-10T06:13:28.130Z,1008.75
2018-01-10T06:14:28.104Z,1008.69
2018-01-10T06:15:28.046Z,1008.74
2018-01-10T06:16:28.011Z,1008.71
2018-01-10T06:17:27.966Z,1008.73
2018-01-10T06:18:27.922Z,1008.69
2018-01-10T06:19:27.882Z,1008.75
2018-01-10T06:20:27.841Z,1008.78
2018-01-10T06:21:27.799Z,1008.75
2018-01-10T06:22:27.758Z,1008.81
2018-01-10T06:23:27.715Z,1008.77
2018-01-10T06:24:27.673Z,1008.82
2018-01-10T06:25:27.638Z,1008.85
2018-01-10T06:26:27.595Z,1008.86
2018-01-10T06:27:27.549Z,1008.94
2018-01-10T06:28:27.508Z,1008.98
2018-01-10T06:29:27.467Z,1009.06
2018-01-10T06:30:27.432Z,1009.01
2018-01-10T06:31:27.383Z,1009.05
2018-01-10T06:32:27.339Z,1009.04
2018-01-10T06:33:27.302Z,1009.02
2018-01-10T06:34:27.258Z,1009.03
2018-01-10T06:35:27.215Z,1008.97
2018-01-10T06:36:27.178Z,1008.96
2018-01-10T06:37:27.132Z,1008.99
2018-01-10T06:38:27.092Z,1009.01
2018-01-10T06:39:27.051Z,1009.02
2018-01-10T06:40:27.008Z,1009.03
2018-01-10T06:41:26.964Z,1009.08
2018-01-10T06:42:26.924Z,1009.14
2018-01-10T06:43:26.885Z,1009.15
2018-01-10T06:44:26.842Z,1009.20
2018-01-10T06:45:26.802Z,1009.18
2018-01-10T06:46:26.770Z,1009.24
2018-01-10T06:47:26.716Z,1009.22
2018-01-10T06:48:26.674Z,1009.19
2018-01-10T06:49:26.631Z,1009.18
2018-01-10T06:50:26.594Z,1009.14
2018-01-10T06:51:26.550Z,1009.08
2018-01-10T06:52:26.517Z,1009.07
2018-01-10T06:53:26.468Z,1009.09
2018-01-10T06:54:26.423Z,1009.09
2018-01-10T06:55:26.404Z,1009.16
2018-01-10T06:56:26.341Z,1009.17
2018-01-10T06:57:26.302Z,1009.23
2018-01-10T06:58:26.263Z,1009.29
2018-01-10T06:59:26.219Z,1009.36
2018-01-10T07:00:26.177Z,1009.38
2018-01-10T07:01:26.134Z,1009.33
2018-01-10T07:02:26.094Z,1009.27
2018-01-10T07:03:26.060Z,1009.15
2018-01-10T07:04:26.008Z,1009.17
2018-01-10T07:05:25.965Z,1009.19
2018-01-10T07:06:25.928Z,1009.26
2018-01-10T07:07:25.883Z,1009.27
2018-01-10T07:08:25.843Z,1009.22
2018-01-10T07:09:25.798Z,1009.25
2018-01-10T07:10:25.776Z,1009.23
2018-01-10T07:11:25.715Z,1009.22
2018-01-10T07:12:25.677Z,1009.23
2018-01-10T07:13:25.632Z,1009.19
2018-01-10T07:14:25.596Z,1009.17
2018-01-10T07:15:25.550Z,1009.17
2018-01-10T07:16:25.506Z,1009.10
2018-01-10T07:17:25.465Z,1009.16
2018-01-10T07:18:25.421Z,1009.16
2018-01-10T07:19:25.382Z,1009.14
2018-01-10T07:20:25.346Z,1009.17
2018-01-10T07:21:25.307Z,1009.16
2018-01-10T07:22:25.257Z,1009.19
2018-01-10T07:23:25.219Z,1009.20
2018-01-10T07:24:25.183Z,1009.20
2018-01-10T07:25:25.138Z,1009.18
2018-01-10T07:26:25.094Z,1009.14
2018-01-10T07:27:25.055Z,1009.10
2018-01-10T07:28:25.007Z,1009.04
2018-01-10T07:29:24.964Z,1009.05
2018-01-10T07:30:24.924Z,1009.04
2018-01-10T07:31:24.888Z,1009.03
2018-01-10T07:32:24.842Z,1009.02
2018-01-10T07:33:24.798Z,1009.01
2018-01-10T07:34:24.756Z,1009.00
2018-01-10T07:35:24.722Z,1009.03
2018-01-10T07:36:24.766Z,1009.00
2018-01-10T07:37:24.638Z,1009.00
2018-01-10T07:38:24.599Z,1009.04
2018-01-10T07:39:24.553Z,1009.03
2018-01-10T07:40:24.511Z,1009.06
2018-01-10T07:41:24.474Z,1009.09
2018-01-10T07:42:24.430Z,1009.07
2018-01-10T07:43:24.386Z,1009.13
2018-01-10T07:44:24.346Z,1009.12
2018-01-10T07:45:24.301Z,1009.16
2018-01-10T07:46:24.260Z,1009.20
2018-01-10T07:47:24.220Z,1009.17
2018-01-10T07:48:24.177Z,1009.16
2018-01-10T07:49:24.136Z,1009.13
2018-01-10T07:50:24.095Z,1009.13
2018-01-10T07:51:24.061Z,1009.12
2018-01-10T07:52:24.022Z,1009.06
2018-01-10T07:53:23.971Z,1009.06
2018-01-10T07:54:23.930Z,1009.08
2018-01-10T07:55:23.888Z,1009.06
2018-01-10T07:56:23.849Z,1009.07
2018-01-10T07:57:23.807Z,1009.08
2018-01-10T07:58:23.761Z,1009.07
2018-01-10T07:59:23.726Z,1009.11
2018-01-10T08:00:23.689Z,1009.09
2018-01-10T08:01:23.738Z,1009.08
2018-01-10T08:02:23.605Z,1009.10
2018-01-10T08:03:23.563Z,1009.13
2018-01-10T08:04:23.514Z,1009.16
2018-01-10T08:05:23.477Z,1009.13
2018-01-10T08:06:23.446Z,1009.20
2018-01-10T08:07:23.587Z,1009.21
2018-01-10T08:08:23.367Z,1009.23
2018-01-10T08:09:23.319Z,1009.22
2018-01-10T08:10:23.274Z,1009.21
2018-01-10T08:11:23.249Z,1009.22
2018-01-10T08:12:23.478Z,1009.24
2018-01-10T08:13:23.151Z,1009.28
2018-01-10T08:14:23.104Z,1009.29
2018-01-10T08:15:23.087Z,1009.26
2018-01-10T08:16:23.023Z,1009.23
2018-01-10T08:17:23.000Z,1009.23
2018-01-10T08:18:22.958Z,1009.25
2018-01-10T08:19:22.896Z,1009.22
2018-01-10T08:20:22.861Z,1009.22
2018-01-10T08:21:22.850Z,1009.18
2018-01-10T08:22:22.775Z,1009.15
2018-01-10T08:23:22.733Z,1009.22
2018-01-10T08:24:22.705Z,1009.25
2018-01-10T08:25:22.666Z,1009.28
2018-01-10T08:26:22.605Z,1009.31
2018-01-10T08:27:22.563Z,1009.34
2018-01-10T08:28:22.529Z,1009.38
2018-01-10T08:29:22.486Z,1009.35
2018-01-10T08:30:22.461Z,1009.35
2018-01-10T08:31:22.404Z,1009.31
2018-01-10T08:32:22.398Z,1009.29
2018-01-10T08:33:22.324Z,1009.30
2018-01-10T08:34:22.299Z,1009.27
2018-01-10T08:35:22.234Z,1009.31
2018-01-10T08:36:22.198Z,1009.29
2018-01-10T08:37:22.202Z,1009.29
2018-01-10T08:38:22.119Z,1009.29
2018-01-10T08:39:22.090Z,1009.24
2018-01-10T08:40:22.060Z,1009.27
2018-01-10T08:41:21.984Z,1009.22
2018-01-10T08:42:21.940Z,1009.29
2018-01-10T08:43:21.899Z,1009.30
2018-01-10T08:44:21.858Z,1009.31
2018-01-10T08:45:21.814Z,1009.32
2018-01-10T08:46:21.796Z,1009.34
2018-01-10T08:47:21.733Z,1009.39
2018-01-10T08:48:21.690Z,1009.36
2018-01-10T08:49:21.659Z,1009.46
2018-01-10T08:50:21.607Z,1009.47
2018-01-10T08:51:21.564Z,1009.48
2018-01-10T08:52:21.523Z,1009.53
2018-01-10T08:53:21.480Z,1009.56
2018-01-10T08:54:21.444Z,1009.58
2018-01-10T08:55:21.399Z,1009.64
2018-01-10T08:56:21.363Z,1009.62
2018-01-10T08:57:21.319Z,1009.66
2018-01-10T08:58:21.276Z,1009.63
2018-01-10T08:59:21.233Z,1009.64
2018-01-10T09:00:21.190Z,1009.67
2018-01-10T09:01:21.145Z,1009.64
2018-01-10T09:02:21.104Z,1009.65
2018-01-10T09:03:21.064Z,1009.63
2018-01-10T09:04:21.022Z,1009.61
2018-01-10T09:05:20.980Z,1009.64
2018-01-10T09:06:20.939Z,1009.60
2018-01-10T09:07:20.897Z,1009.55
2018-01-10T09:08:20.857Z,1009.51
2018-01-10T09:09:20.816Z,1009.50
2018-01-10T09:10:20.774Z,1009.53
2018-01-10T09:11:20.730Z,1009.51
2018-01-10T09:12:20.689Z,1009.49
2018-01-10T09:13:20.646Z,1009.46
2018-01-10T09:14:20.612Z,1009.45
2018-01-10T09:15:20.570Z,1009.47
2018-01-10T09:16:20.549Z,1009.51
2018-01-10T09:17:20.480Z,1009.47
2018-01-10T09:18:20.446Z,1009.51
2018-01-10T09:19:20.399Z,1009.53
2018-01-10T09:20:20.357Z,1009.52
2018-01-10T09:21:20.314Z,1009.49
2018-01-10T09:22:20.273Z,1009.52
2018-01-10T09:23:20.231Z,1009.54
2018-01-10T09:24:20.195Z,1009.60
2018-01-10T09:25:20.149Z,1009.57
2018-01-10T09:26:20.109Z,1009.59
2018-01-10T09:27:20.070Z,1009.57
2018-01-10T09:28:20.031Z,1009.58
2018-01-10T09:29:19.984Z,1009.57
2018-01-10T09:30:19.944Z,1009.55
2018-01-10T09:31:19.908Z,1009.61
2018-01-10T09:32:19.863Z,1009.64
2018-01-10T09:33:19.822Z,1009.61
2018-01-10T09:34:19.778Z,1009.65
2018-01-10T09:35:19.746Z,1009.67
2018-01-10T09:36:19.699Z,1009.73
2018-01-10T09:37:19.655Z,1009.76
2018-01-10T09:38:19.614Z,1009.72
2018-01-10T09:39:19.574Z,1009.74
2018-01-10T09:40:19.534Z,1009.76
2018-01-10T09:41:19.492Z,1009.75
2018-01-10T09:42:19.451Z,1009.71
2018-01-10T09:43:19.424Z,1009.66
2018-01-10T09:44:19.384Z,1009.64
2018-01-10T09:45:19.331Z,1009.65
2018-01-10T09:46:19.295Z,1009.66
2018-01-10T09:47:19.247Z,1009.62
2018-01-10T09:48:19.205Z,1009.59
2018-01-10T09:49:19.164Z,1009.62
2018-01-10T09:50:19.131Z,1009.64
2018-01-10T09:51:19.084Z,1009.64
2018-01-10T09:52:19.043Z,1009.60
2018-01-10T09:53:19.002Z,1009.63
2018-01-10T09:54:18.965Z,1009.62
2018-01-10T09:55:18.923Z,1009.61
2018-01-10T09:56:18.881Z,1009.63
2018-01-10T09:57:18.847Z,1009.61
2018-01-10T09:58:18.804Z,1009.60
2018-01-10T09:59:18.758Z,1009.56
2018-01-10T10:00:18.719Z,1009.56
2018-01-10T10:01:18.679Z,1009.53
2018-01-10T10:02:18.637Z,1009.55
2018-01-10T10:03:18.597Z,1009.54
2018-01-10T10:04:18.560Z,1009.55
2018-01-10T10:05:18.519Z,1009.51
2018-01-10T10:06:18.477Z,1009.50
2018-01-10T10:07:18.438Z,1009.48
2018-01-10T10:08:18.394Z,1009.51
2018-01-10T10:09:18.354Z,1009.51
2018-01-10T10:10:18.314Z,1009.47
2018-01-10T10:11:18.278Z,1009.48
2018-01-10T10:12:18.248Z,1009.49
2018-01-10T10:13:18.190Z,1009.51
2018-01-10T10:14:18.154Z,1009.51
2018-01-10T10:15:18.112Z,1009.56
2018-01-10T10:16:18.069Z,1009.52
2018-01-10T10:17:18.029Z,1009.49
2018-01-10T10:18:18.026Z,1009.51
2018-01-10T10:19:17.953Z,1009.48
2018-01-10T10:20:17.912Z,1009.45
2018-01-10T10:21:17.867Z,1009.40
2018-01-10T10:22:17.836Z,1009.38
2018-01-10T10:23:17.816Z,1009.40
2018-01-10T10:24:17.747Z,1009.38
2018-01-10T10:25:17.707Z,1009.41
2018-01-10T10:26:17.667Z,1009.42
2018-01-10T10:27:17.644Z,1009.46
2018-01-10T10:28:17.589Z,1009.43
2018-01-10T10:29:17.544Z,1009.46
2018-01-10T10:30:17.503Z,1009.41
2018-01-10T10:31:17.464Z,1009.39
2018-01-10T10:32:17.422Z,1009.35
2018-01-10T10:33:17.397Z,1009.29
2018-01-10T10:34:17.349Z,1009.26
2018-01-10T10:35:17.306Z,1009.23
2018-01-10T10:36:17.267Z,1009.19
2018-01-10T10:37:17.220Z,1009.18
2018-01-10T10:38:17.185Z,1009.18
2018-01-10T10:39:17.143Z,1009.10
2018-01-10T10:40:17.119Z,1009.11
2018-01-10T10:41:17.065Z,1008.97
2018-01-10T10:42:17.022Z,1008.95
2018-01-10T10:43:16.992Z,1008.92
2018-01-10T10:44:16.944Z,1008.89
2018-01-10T10:45:16.911Z,1008.91
2018-01-10T10:46:16.864Z,1008.89
2018-01-10T10:47:16.833Z,1008.86
2018-01-10T10:48:16.785Z,1008.84
2018-01-10T10:49:16.758Z,1008.84
2018-01-10T10:50:16.704Z,1008.78
2018-01-10T10:51:16.670Z,1008.80
2018-01-10T10:52:16.631Z,1008.83
2018-01-10T10:53:16.588Z,1008.84
2018-01-10T10:54:16.542Z,1008.82
2018-01-10T10:55:16.523Z,1008.83
2018-01-10T10:56:16.463Z,1008.80
2018-01-10T10:57:16.430Z,1008.76
2018-01-10T10:58:16.390Z,1008.76
2018-01-10T10:59:16.347Z,1008.77
2018-01-10T11:00:16.307Z,1008.72
2018-01-10T11:01:16.271Z,1008.78
2018-01-10T11:02:16.223Z,1008.80
2018-01-10T11:03:16.190Z,1008.74
2018-01-10T11:04:16.198Z,1008.75
2018-01-10T11:05:16.111Z,1008.77
2018-01-10T11:06:16.066Z,1008.76
2018-01-10T11:07:16.032Z,1008.78
2018-01-10T11:08:16.001Z,1008.82
2018-01-10T11:09:15.956Z,1008.84
2018-01-10T11:10:15.921Z,1008.90
2018-01-10T11:11:15.892Z,1008.96
2018-01-10T11:12:15.821Z,1008.93
2018-01-10T11:13:15.788Z,1008.85
2018-01-10T11:14:15.752Z,1008.88
2018-01-10T11:15:15.715Z,1008.89
2018-01-10T11:16:15.665Z,1008.93
2018-01-10T11:17:15.632Z,1008.90
2018-01-10T11:18:15.582Z,1008.89
2018-01-10T11:19:15.544Z,1008.93
2018-01-10T11:20:15.505Z,1008.92
2018-01-10T11:21:15.464Z,1008.89
2018-01-10T11:22:15.428Z,1008.89
2018-01-10T11:23:15.384Z,1008.88
2018-01-10T11:24:15.350Z,1008.82
2018-01-10T11:25:15.305Z,1008.75
2018-01-10T11:26:15.272Z,1008.78
2018-01-10T11:27:15.227Z,1008.74
2018-01-10T11:28:15.186Z,1008.78
2018-01-10T11:29:15.151Z,1008.79
2018-01-10T11:30:15.108Z,1008.75
2018-01-10T11:31:15.075Z,1008.74
2018-01-10T11:32:15.025Z,1008.72
2018-01-10T11:33:14.988Z,1008.74
2018-01-10T11:34:14.957Z,1008.74
2018-01-10T11:35:14.909Z,1008.76
2018-01-10T11:36:14.872Z,1008.77
2018-01-10T11:37:14.832Z,1008.79
2018-01-10T11:38:14.790Z,1008.85
2018-01-10T11:39:14.751Z,1008.87
2018-01-10T11:40:14.711Z,1008.88
2018-01-10T11:41:14.666Z,1008.82
2018-01-10T11:42:14.628Z,1008.82
2018-01-10T11:43:14.586Z,1008.80
2018-01-10T11:44:14.547Z,1008.78
2018-01-10T11:45:14.507Z,1008.78
2018-01-10T11:46:14.468Z,1008.73
2018-01-10T11:47:14.433Z,1008.76
2018-01-10T11:48:14.388Z,1008.75
2018-01-10T11:49:14.356Z,1008.73
2018-01-10T11:50:14.306Z,1008.79
2018-01-10T11:51:14.270Z,1008.76
2018-01-10T11:52:14.229Z,1008.75
2018-01-10T11:53:14.194Z,1008.77
2018-01-10T11:54:14.152Z,1008.78
2018-01-10T11:55:14.109Z,1008.76
2018-01-10T11:56:14.074Z,1008.70
2018-01-10T11:57:14.028Z,1008.75
2018-01-10T11:58:13.989Z,1008.79
2018-01-10T11:59:13.949Z,1008.78
2018-01-10T12:00:13.917Z,1008.76
2018-01-10T12:01:13.868Z,1008.80
2018-01-10T12:02:13.836Z,1008.80
2018-01-10T12:03:13.791Z,1008.78
2018-01-10T12:04:13.758Z,1008.77
2018-01-10T12:05:13.740Z,1008.80